Air Park, Nebraska
Current Conditions -  °F | °C
As of 5:54 AM on Friday 31 Oct 2014 (Local Time) from KLNK Reporting Station
Clear Clear  
Wind Chill: 19°   Ceiling: Unl
Heat Index: 29°   Visibility: 10mi
Dew Point: 20°   Wind: 12mph
Humidity: 69%   Direction: 360°N
Pressure: 30.53"   Gusts: NA
Location:  40.8731°N, 96.8015°W
Report Text: KLNK 311054Z 36010KT 10SM CLR M02/M07 A3053 RMK AO2 SLP346 T10171067
Loading
Personal Weather Stations






























Interactive Weather Map
Tropical Storm Tracking
New forecast layout! Learn more

10-Day Weather Forecast

Advertisements
Track Severe Weather on mobile